sensor_id;sensor_type;location;lat;lon;timestamp;temperature;humidity
68485;DHT22;55472;50.060;21.960;2022-08-07T00:01:34;18.80;69.40
68485;DHT22;55472;50.060;21.960;2022-08-07T00:04:00;18.80;69.50
68485;DHT22;55472;50.060;21.960;2022-08-07T00:06:26;18.80;69.70
68485;DHT22;55472;50.060;21.960;2022-08-07T00:08:52;18.80;69.60
68485;DHT22;55472;50.060;21.960;2022-08-07T00:11:18;18.80;69.60
68485;DHT22;55472;50.060;21.960;2022-08-07T00:13:44;18.80;69.70
68485;DHT22;55472;50.060;21.960;2022-08-07T00:16:13;18.80;70.00
68485;DHT22;55472;50.060;21.960;2022-08-07T00:18:39;18.70;70.00
68485;DHT22;55472;50.060;21.960;2022-08-07T00:21:07;18.70;69.90
68485;DHT22;55472;50.060;21.960;2022-08-07T00:23:36;18.70;70.00
68485;DHT22;55472;50.060;21.960;2022-08-07T00:26:04;18.60;70.30
68485;DHT22;55472;50.060;21.960;2022-08-07T00:28:32;18.60;70.20
68485;DHT22;55472;50.060;21.960;2022-08-07T00:31:00;18.50;70.60
68485;DHT22;55472;50.060;21.960;2022-08-07T00:33:30;18.50;70.60
68485;DHT22;55472;50.060;21.960;2022-08-07T00:35:56;18.50;70.70
68485;DHT22;55472;50.060;21.960;2022-08-07T00:38:22;18.50;70.80
68485;DHT22;55472;50.060;21.960;2022-08-07T00:40:49;18.50;70.70
68485;DHT22;55472;50.060;21.960;2022-08-07T00:43:15;18.50;70.90
68485;DHT22;55472;50.060;21.960;2022-08-07T00:45:41;18.50;71.20
68485;DHT22;55472;50.060;21.960;2022-08-07T00:48:10;18.50;71.20
68485;DHT22;55472;50.060;21.960;2022-08-07T00:50:37;18.50;71.30
68485;DHT22;55472;50.060;21.960;2022-08-07T00:53:03;18.50;71.50
68485;DHT22;55472;50.060;21.960;2022-08-07T00:55:29;18.50;71.40
68485;DHT22;55472;50.060;21.960;2022-08-07T00:57:55;18.40;71.70
68485;DHT22;55472;50.060;21.960;2022-08-07T01:00:22;18.40;71.60
68485;DHT22;55472;50.060;21.960;2022-08-07T01:02:49;18.40;71.60
68485;DHT22;55472;50.060;21.960;2022-08-07T01:05:16;18.40;72.00
68485;DHT22;55472;50.060;21.960;2022-08-07T01:07:45;18.40;72.00
68485;DHT22;55472;50.060;21.960;2022-08-07T01:10:11;18.40;72.10
68485;DHT22;55472;50.060;21.960;2022-08-07T01:12:40;18.40;72.30
68485;DHT22;55472;50.060;21.960;2022-08-07T01:15:07;18.30;72.20
68485;DHT22;55472;50.060;21.960;2022-08-07T01:17:34;18.30;72.40
68485;DHT22;55472;50.060;21.960;2022-08-07T01:20:11;18.30;72.60
68485;DHT22;55472;50.060;21.960;2022-08-07T01:22:39;18.30;72.30
68485;DHT22;55472;50.060;21.960;2022-08-07T01:25:06;18.30;72.60
68485;DHT22;55472;50.060;21.960;2022-08-07T01:27:34;18.30;72.50
68485;DHT22;55472;50.060;21.960;2022-08-07T01:30:00;18.30;72.70
68485;DHT22;55472;50.060;21.960;2022-08-07T01:32:27;18.20;72.60
68485;DHT22;55472;50.060;21.960;2022-08-07T01:34:53;18.20;72.90
68485;DHT22;55472;50.060;21.960;2022-08-07T01:37:20;18.20;73.10
68485;DHT22;55472;50.060;21.960;2022-08-07T01:39:46;18.10;72.80
68485;DHT22;55472;50.060;21.960;2022-08-07T01:42:16;18.10;73.30
68485;DHT22;55472;50.060;21.960;2022-08-07T01:44:42;18.10;73.50
68485;DHT22;55472;50.060;21.960;2022-08-07T01:47:08;18.10;73.40
68485;DHT22;55472;50.060;21.960;2022-08-07T01:49:35;18.10;73.30
68485;DHT22;55472;50.060;21.960;2022-08-07T01:52:03;18.10;73.20
68485;DHT22;55472;50.060;21.960;2022-08-07T01:54:34;18.10;73.40
68485;DHT22;55472;50.060;21.960;2022-08-07T01:57:09;18.20;73.10
68485;DHT22;55472;50.060;21.960;2022-08-07T01:59:45;18.10;73.20
68485;DHT22;55472;50.060;21.960;2022-08-07T02:02:32;18.10;73.60
68485;DHT22;55472;50.060;21.960;2022-08-07T02:05:08;18.10;73.80
68485;DHT22;55472;50.060;21.960;2022-08-07T02:07:43;18.10;73.60
68485;DHT22;55472;50.060;21.960;2022-08-07T02:10:13;18.10;73.60
68485;DHT22;55472;50.060;21.960;2022-08-07T02:12:41;18.10;73.80
68485;DHT22;55472;50.060;21.960;2022-08-07T02:15:09;18.10;73.80
68485;DHT22;55472;50.060;21.960;2022-08-07T02:17:37;18.10;73.80
68485;DHT22;55472;50.060;21.960;2022-08-07T02:20:06;18.10;73.70
68485;DHT22;55472;50.060;21.960;2022-08-07T02:22:36;18.10;73.90
68485;DHT22;55472;50.060;21.960;2022-08-07T02:25:05;18.10;73.70
68485;DHT22;55472;50.060;21.960;2022-08-07T02:27:33;18.10;74.00
68485;DHT22;55472;50.060;21.960;2022-08-07T02:30:00;18.00;74.20
68485;DHT22;55472;50.060;21.960;2022-08-07T02:32:27;18.00;74.30
68485;DHT22;55472;50.060;21.960;2022-08-07T02:34:53;18.00;74.30
68485;DHT22;55472;50.060;21.960;2022-08-07T02:37:22;18.00;74.70
68485;DHT22;55472;50.060;21.960;2022-08-07T02:39:51;18.00;74.70
68485;DHT22;55472;50.060;21.960;2022-08-07T02:42:18;18.00;74.70
68485;DHT22;55472;50.060;21.960;2022-08-07T02:44:48;18.00;74.70
68485;DHT22;55472;50.060;21.960;2022-08-07T02:47:18;18.00;74.80
68485;DHT22;55472;50.060;21.960;2022-08-07T02:49:44;18.00;74.70
68485;DHT22;55472;50.060;21.960;2022-08-07T02:52:14;18.00;74.70
68485;DHT22;55472;50.060;21.960;2022-08-07T02:54:44;18.00;74.90
68485;DHT22;55472;50.060;21.960;2022-08-07T02:57:12;18.00;74.90
68485;DHT22;55472;50.060;21.960;2022-08-07T02:59:41;18.00;75.20
68485;DHT22;55472;50.060;21.960;2022-08-07T03:02:14;17.90;75.30
68485;DHT22;55472;50.060;21.960;2022-08-07T03:04:43;17.90;75.40
68485;DHT22;55472;50.060;21.960;2022-08-07T03:07:10;17.90;75.40
68485;DHT22;55472;50.060;21.960;2022-08-07T03:09:37;17.90;75.50
68485;DHT22;55472;50.060;21.960;2022-08-07T03:12:04;17.90;75.60
68485;DHT22;55472;50.060;21.960;2022-08-07T03:14:32;17.90;75.50
68485;DHT22;55472;50.060;21.960;2022-08-07T03:17:02;17.90;75.70
68485;DHT22;55472;50.060;21.960;2022-08-07T03:19:29;17.90;75.70
68485;DHT22;55472;50.060;21.960;2022-08-07T03:21:55;17.90;75.90
68485;DHT22;55472;50.060;21.960;2022-08-07T03:24:21;17.90;76.10
68485;DHT22;55472;50.060;21.960;2022-08-07T03:26:49;17.90;75.90
68485;DHT22;55472;50.060;21.960;2022-08-07T03:29:17;17.80;76.30
68485;DHT22;55472;50.060;21.960;2022-08-07T03:31:46;17.80;76.40
68485;DHT22;55472;50.060;21.960;2022-08-07T03:34:13;17.80;76.30
68485;DHT22;55472;50.060;21.960;2022-08-07T03:36:42;17.80;76.60
68485;DHT22;55472;50.060;21.960;2022-08-07T03:39:11;17.80;76.60
68485;DHT22;55472;50.060;21.960;2022-08-07T03:41:39;17.80;76.60
68485;DHT22;55472;50.060;21.960;2022-08-07T03:44:05;17.70;76.80
68485;DHT22;55472;50.060;21.960;2022-08-07T03:46:32;17.80;76.80
68485;DHT22;55472;50.060;21.960;2022-08-07T03:48:58;17.80;76.80
68485;DHT22;55472;50.060;21.960;2022-08-07T03:51:25;17.80;76.80
68485;DHT22;55472;50.060;21.960;2022-08-07T03:53:52;17.80;76.80
68485;DHT22;55472;50.060;21.960;2022-08-07T03:56:20;17.80;76.90
68485;DHT22;55472;50.060;21.960;2022-08-07T03:58:47;17.80;76.90
68485;DHT22;55472;50.060;21.960;2022-08-07T04:01:14;17.80;76.70
68485;DHT22;55472;50.060;21.960;2022-08-07T04:03:42;17.80;76.90
68485;DHT22;55472;50.060;21.960;2022-08-07T04:06:09;17.80;76.80
68485;DHT22;55472;50.060;21.960;2022-08-07T04:08:38;17.90;76.80
68485;DHT22;55472;50.060;21.960;2022-08-07T04:11:06;17.80;76.80
68485;DHT22;55472;50.060;21.960;2022-08-07T04:13:34;17.80;76.60
68485;DHT22;55472;50.060;21.960;2022-08-07T04:16:01;17.80;76.70
68485;DHT22;55472;50.060;21.960;2022-08-07T04:18:27;17.90;76.70
68485;DHT22;55472;50.060;21.960;2022-08-07T04:20:53;17.80;76.90
68485;DHT22;55472;50.060;21.960;2022-08-07T04:23:19;17.90;76.90
68485;DHT22;55472;50.060;21.960;2022-08-07T04:25:46;17.90;76.80
68485;DHT22;55472;50.060;21.960;2022-08-07T04:28:13;17.90;76.80
68485;DHT22;55472;50.060;21.960;2022-08-07T04:30:39;17.90;76.80
68485;DHT22;55472;50.060;21.960;2022-08-07T04:33:07;17.90;76.70
68485;DHT22;55472;50.060;21.960;2022-08-07T04:35:36;17.90;77.00
68485;DHT22;55472;50.060;21.960;2022-08-07T04:38:07;17.80;76.60
68485;DHT22;55472;50.060;21.960;2022-08-07T04:40:34;17.70;77.30
68485;DHT22;55472;50.060;21.960;2022-08-07T04:43:04;17.70;77.00
68485;DHT22;55472;50.060;21.960;2022-08-07T04:45:46;17.70;77.20
68485;DHT22;55472;50.060;21.960;2022-08-07T04:48:44;17.70;76.20
68485;DHT22;55472;50.060;21.960;2022-08-07T04:51:34;17.70;76.60
68485;DHT22;55472;50.060;21.960;2022-08-07T04:57:39;17.70;75.90
68485;DHT22;55472;50.060;21.960;2022-08-07T05:00:16;17.80;75.60
68485;DHT22;55472;50.060;21.960;2022-08-07T05:05:34;17.90;75.10
68485;DHT22;55472;50.060;21.960;2022-08-07T05:08:14;17.80;74.70
68485;DHT22;55472;50.060;21.960;2022-08-07T05:10:51;17.70;74.60
68485;DHT22;55472;50.060;21.960;2022-08-07T05:13:34;17.70;74.70
68485;DHT22;55472;50.060;21.960;2022-08-07T05:16:07;17.70;74.70
68485;DHT22;55472;50.060;21.960;2022-08-07T05:18:39;17.70;74.80
68485;DHT22;55472;50.060;21.960;2022-08-07T05:21:12;17.60;74.70
68485;DHT22;55472;50.060;21.960;2022-08-07T05:23:44;17.60;74.20
68485;DHT22;55472;50.060;21.960;2022-08-07T05:26:16;17.60;74.60
68485;DHT22;55472;50.060;21.960;2022-08-07T05:28:44;17.70;73.70
68485;DHT22;55472;50.060;21.960;2022-08-07T05:31:12;17.60;74.30
68485;DHT22;55472;50.060;21.960;2022-08-07T05:33:42;17.70;73.80
68485;DHT22;55472;50.060;21.960;2022-08-07T05:36:09;17.70;74.40
68485;DHT22;55472;50.060;21.960;2022-08-07T05:38:38;17.80;74.40
68485;DHT22;55472;50.060;21.960;2022-08-07T05:41:04;17.80;73.50
68485;DHT22;55472;50.060;21.960;2022-08-07T05:43:32;17.80;73.20
68485;DHT22;55472;50.060;21.960;2022-08-07T05:45:59;17.80;72.50
68485;DHT22;55472;50.060;21.960;2022-08-07T05:48:28;17.80;72.90
68485;DHT22;55472;50.060;21.960;2022-08-07T05:50:58;17.80;72.80
68485;DHT22;55472;50.060;21.960;2022-08-07T05:53:26;17.90;72.20
68485;DHT22;55472;50.060;21.960;2022-08-07T05:55:54;17.90;71.90
68485;DHT22;55472;50.060;21.960;2022-08-07T05:58:22;17.90;72.40
68485;DHT22;55472;50.060;21.960;2022-08-07T06:00:49;18.00;72.10
68485;DHT22;55472;50.060;21.960;2022-08-07T06:03:20;18.10;71.70
68485;DHT22;55472;50.060;21.960;2022-08-07T06:05:48;18.10;71.20
68485;DHT22;55472;50.060;21.960;2022-08-07T06:08:15;18.20;70.50
68485;DHT22;55472;50.060;21.960;2022-08-07T06:10:42;18.10;69.60
68485;DHT22;55472;50.060;21.960;2022-08-07T06:13:09;18.20;68.70
68485;DHT22;55472;50.060;21.960;2022-08-07T06:15:36;18.10;69.20
68485;DHT22;55472;50.060;21.960;2022-08-07T06:18:05;18.20;69.10
68485;DHT22;55472;50.060;21.960;2022-08-07T06:20:34;18.30;68.80
68485;DHT22;55472;50.060;21.960;2022-08-07T06:23:03;18.30;68.90
68485;DHT22;55472;50.060;21.960;2022-08-07T06:25:30;18.40;67.80
68485;DHT22;55472;50.060;21.960;2022-08-07T06:28:07;18.50;66.90
68485;DHT22;55472;50.060;21.960;2022-08-07T06:30:35;18.70;66.20
68485;DHT22;55472;50.060;21.960;2022-08-07T06:33:03;18.70;66.40
68485;DHT22;55472;50.060;21.960;2022-08-07T06:35:30;18.80;65.80
68485;DHT22;55472;50.060;21.960;2022-08-07T06:37:56;18.80;64.80
68485;DHT22;55472;50.060;21.960;2022-08-07T06:40:23;18.80;64.20
68485;DHT22;55472;50.060;21.960;2022-08-07T06:42:50;18.90;64.60
68485;DHT22;55472;50.060;21.960;2022-08-07T06:45:19;18.90;63.40
68485;DHT22;55472;50.060;21.960;2022-08-07T06:47:45;18.80;62.40
68485;DHT22;55472;50.060;21.960;2022-08-07T06:50:12;18.80;63.30
68485;DHT22;55472;50.060;21.960;2022-08-07T06:52:42;19.00;64.20
68485;DHT22;55472;50.060;21.960;2022-08-07T06:55:15;19.20;63.30
68485;DHT22;55472;50.060;21.960;2022-08-07T06:57:44;19.20;62.80
68485;DHT22;55472;50.060;21.960;2022-08-07T07:00:10;19.30;62.30
68485;DHT22;55472;50.060;21.960;2022-08-07T07:02:38;19.30;62.10
68485;DHT22;55472;50.060;21.960;2022-08-07T07:05:07;19.40;62.00
68485;DHT22;55472;50.060;21.960;2022-08-07T07:07:33;19.40;61.40
68485;DHT22;55472;50.060;21.960;2022-08-07T07:09:59;19.50;60.40
68485;DHT22;55472;50.060;21.960;2022-08-07T07:12:48;19.50;60.40
68485;DHT22;55472;50.060;21.960;2022-08-07T07:15:29;19.60;58.90
68485;DHT22;55472;50.060;21.960;2022-08-07T07:20:54;19.80;58.20
68485;DHT22;55472;50.060;21.960;2022-08-07T07:23:22;19.90;58.90
68485;DHT22;55472;50.060;21.960;2022-08-07T07:25:52;20.10;58.90
68485;DHT22;55472;50.060;21.960;2022-08-07T07:28:20;20.30;58.50
68485;DHT22;55472;50.060;21.960;2022-08-07T07:30:54;20.50;58.20
68485;DHT22;55472;50.060;21.960;2022-08-07T07:33:22;20.70;57.20
68485;DHT22;55472;50.060;21.960;2022-08-07T07:35:51;20.90;56.50
68485;DHT22;55472;50.060;21.960;2022-08-07T07:38:18;20.90;56.30
68485;DHT22;55472;50.060;21.960;2022-08-07T07:40:47;21.00;56.70
68485;DHT22;55472;50.060;21.960;2022-08-07T07:43:15;21.20;55.90
68485;DHT22;55472;50.060;21.960;2022-08-07T07:45:44;21.40;56.10
68485;DHT22;55472;50.060;21.960;2022-08-07T07:48:14;21.50;55.60
68485;DHT22;55472;50.060;21.960;2022-08-07T07:50:44;21.60;55.60
68485;DHT22;55472;50.060;21.960;2022-08-07T07:53:14;21.80;54.30
68485;DHT22;55472;50.060;21.960;2022-08-07T07:55:41;21.90;53.90
68485;DHT22;55472;50.060;21.960;2022-08-07T07:58:08;22.10;54.50
68485;DHT22;55472;50.060;21.960;2022-08-07T08:00:35;22.30;54.50
68485;DHT22;55472;50.060;21.960;2022-08-07T08:03:05;22.60;54.10
68485;DHT22;55472;50.060;21.960;2022-08-07T08:05:38;22.80;52.50
68485;DHT22;55472;50.060;21.960;2022-08-07T08:08:06;23.00;51.00
68485;DHT22;55472;50.060;21.960;2022-08-07T08:10:33;23.10;51.00
68485;DHT22;55472;50.060;21.960;2022-08-07T08:13:00;23.20;50.20
68485;DHT22;55472;50.060;21.960;2022-08-07T08:15:28;23.30;50.90
68485;DHT22;55472;50.060;21.960;2022-08-07T08:17:56;23.50;50.80
68485;DHT22;55472;50.060;21.960;2022-08-07T08:20:24;23.60;50.50
68485;DHT22;55472;50.060;21.960;2022-08-07T08:22:53;23.80;49.30
68485;DHT22;55472;50.060;21.960;2022-08-07T08:25:42;23.90;50.00
68485;DHT22;55472;50.060;21.960;2022-08-07T08:28:28;24.00;49.90
68485;DHT22;55472;50.060;21.960;2022-08-07T08:30:59;24.10;50.10
68485;DHT22;55472;50.060;21.960;2022-08-07T08:33:30;24.20;49.80
68485;DHT22;55472;50.060;21.960;2022-08-07T08:35:59;24.40;48.90
68485;DHT22;55472;50.060;21.960;2022-08-07T08:38:31;24.50;48.70
68485;DHT22;55472;50.060;21.960;2022-08-07T08:41:26;24.70;48.60
68485;DHT22;55472;50.060;21.960;2022-08-07T08:44:21;24.90;47.20
68485;DHT22;55472;50.060;21.960;2022-08-07T08:49:43;25.50;46.00
68485;DHT22;55472;50.060;21.960;2022-08-07T08:52:21;25.90;46.20
68485;DHT22;55472;50.060;21.960;2022-08-07T08:57:36;26.60;43.40
68485;DHT22;55472;50.060;21.960;2022-08-07T09:00:07;27.20;42.00
68485;DHT22;55472;50.060;21.960;2022-08-07T09:02:46;28.00;42.10
68485;DHT22;55472;50.060;21.960;2022-08-07T09:05:57;29.40;39.50
68485;DHT22;55472;50.060;21.960;2022-08-07T09:12:08;32.30;35.20
68485;DHT22;55472;50.060;21.960;2022-08-07T09:15:17;34.10;33.40
68485;DHT22;55472;50.060;21.960;2022-08-07T09:30:14;36.90;30.50
68485;DHT22;55472;50.060;21.960;2022-08-07T09:32:58;37.90;28.70
68485;DHT22;55472;50.060;21.960;2022-08-07T09:40:39;39.10;26.50
68485;DHT22;55472;50.060;21.960;2022-08-07T09:43:27;39.10;26.50
68485;DHT22;55472;50.060;21.960;2022-08-07T09:46:27;39.40;26.20
68485;DHT22;55472;50.060;21.960;2022-08-07T09:49:23;38.90;26.90
68485;DHT22;55472;50.060;21.960;2022-08-07T09:52:43;37.10;27.80
68485;DHT22;55472;50.060;21.960;2022-08-07T09:55:31;35.90;28.80
68485;DHT22;55472;50.060;21.960;2022-08-07T10:01:40;33.90;30.20
68485;DHT22;55472;50.060;21.960;2022-08-07T10:29:10;32.90;31.90
68485;DHT22;55472;50.060;21.960;2022-08-07T10:32:02;32.20;32.50
68485;DHT22;55472;50.060;21.960;2022-08-07T10:40:07;32.00;33.20
68485;DHT22;55472;50.060;21.960;2022-08-07T10:50:48;31.70;32.60
68485;DHT22;55472;50.060;21.960;2022-08-07T10:53:28;31.60;33.80
68485;DHT22;55472;50.060;21.960;2022-08-07T10:56:03;31.80;33.40
68485;DHT22;55472;50.060;21.960;2022-08-07T11:02:01;31.70;33.70
68485;DHT22;55472;50.060;21.960;2022-08-07T11:10:58;30.80;34.40
68485;DHT22;55472;50.060;21.960;2022-08-07T11:16:09;30.50;35.20
68485;DHT22;55472;50.060;21.960;2022-08-07T11:18:50;30.40;35.20
68485;DHT22;55472;50.060;21.960;2022-08-07T11:24:04;29.90;35.10
68485;DHT22;55472;50.060;21.960;2022-08-07T11:26:53;29.80;35.00
68485;DHT22;55472;50.060;21.960;2022-08-07T11:35:32;29.60;35.80
68485;DHT22;55472;50.060;21.960;2022-08-07T11:41:29;29.50;36.60
68485;DHT22;55472;50.060;21.960;2022-08-07T11:44:17;29.20;36.50
68485;DHT22;55472;50.060;21.960;2022-08-07T11:47:17;29.20;36.50
68485;DHT22;55472;50.060;21.960;2022-08-07T11:49:55;29.20;36.10
68485;DHT22;55472;50.060;21.960;2022-08-07T11:55:32;28.80;36.00
68485;DHT22;55472;50.060;21.960;2022-08-07T11:58:37;28.80;36.40
68485;DHT22;55472;50.060;21.960;2022-08-07T12:04:15;28.60;37.30
68485;DHT22;55472;50.060;21.960;2022-08-07T12:07:16;28.60;37.00
68485;DHT22;55472;50.060;21.960;2022-08-07T12:10:17;28.10;36.30
68485;DHT22;55472;50.060;21.960;2022-08-07T12:13:05;28.00;36.60
68485;DHT22;55472;50.060;21.960;2022-08-07T12:15:44;27.80;37.00
68485;DHT22;55472;50.060;21.960;2022-08-07T12:23:58;27.50;36.60
68485;DHT22;55472;50.060;21.960;2022-08-07T12:26:53;27.20;37.40
68485;DHT22;55472;50.060;21.960;2022-08-07T12:29:44;27.00;37.00
68485;DHT22;55472;50.060;21.960;2022-08-07T12:32:37;27.00;38.20
68485;DHT22;55472;50.060;21.960;2022-08-07T12:35:10;27.10;38.50
68485;DHT22;55472;50.060;21.960;2022-08-07T12:37:40;27.20;37.80
68485;DHT22;55472;50.060;21.960;2022-08-07T12:40:09;27.30;36.80
68485;DHT22;55472;50.060;21.960;2022-08-07T12:42:39;27.30;37.10
68485;DHT22;55472;50.060;21.960;2022-08-07T12:45:14;27.30;37.10
68485;DHT22;55472;50.060;21.960;2022-08-07T12:50:29;27.40;37.30
68485;DHT22;55472;50.060;21.960;2022-08-07T12:53:21;27.50;37.40
68485;DHT22;55472;50.060;21.960;2022-08-07T12:56:18;27.50;37.60
68485;DHT22;55472;50.060;21.960;2022-08-07T12:58:57;27.40;37.60
68485;DHT22;55472;50.060;21.960;2022-08-07T13:05:04;27.40;37.70
68485;DHT22;55472;50.060;21.960;2022-08-07T13:14:00;27.00;37.50
68485;DHT22;55472;50.060;21.960;2022-08-07T13:19:59;27.00;37.60
68485;DHT22;55472;50.060;21.960;2022-08-07T13:22:46;27.00;37.30
68485;DHT22;55472;50.060;21.960;2022-08-07T13:25:25;27.00;36.80
68485;DHT22;55472;50.060;21.960;2022-08-07T13:28:03;26.90;36.20
68485;DHT22;55472;50.060;21.960;2022-08-07T13:30:33;26.80;36.90
68485;DHT22;55472;50.060;21.960;2022-08-07T13:33:08;26.70;37.10
68485;DHT22;55472;50.060;21.960;2022-08-07T13:35:45;26.60;37.40
68485;DHT22;55472;50.060;21.960;2022-08-07T13:38:20;26.60;37.60
68485;DHT22;55472;50.060;21.960;2022-08-07T13:41:00;26.50;36.80
68485;DHT22;55472;50.060;21.960;2022-08-07T13:43:29;26.40;36.40
68485;DHT22;55472;50.060;21.960;2022-08-07T13:46:00;26.40;36.70
68485;DHT22;55472;50.060;21.960;2022-08-07T13:48:29;26.40;37.40
68485;DHT22;55472;50.060;21.960;2022-08-07T13:50:57;26.40;37.20
68485;DHT22;55472;50.060;21.960;2022-08-07T13:53:34;26.40;37.50
68485;DHT22;55472;50.060;21.960;2022-08-07T13:56:04;26.40;38.40
68485;DHT22;55472;50.060;21.960;2022-08-07T13:58:41;26.30;36.80
68485;DHT22;55472;50.060;21.960;2022-08-07T14:01:30;26.30;37.70
68485;DHT22;55472;50.060;21.960;2022-08-07T14:04:02;26.30;37.50
68485;DHT22;55472;50.060;21.960;2022-08-07T14:06:40;26.20;37.40
68485;DHT22;55472;50.060;21.960;2022-08-07T14:09:14;26.20;37.30
68485;DHT22;55472;50.060;21.960;2022-08-07T14:11:51;26.20;37.40
68485;DHT22;55472;50.060;21.960;2022-08-07T14:17:05;26.20;36.30
68485;DHT22;55472;50.060;21.960;2022-08-07T14:19:37;26.20;37.30
68485;DHT22;55472;50.060;21.960;2022-08-07T14:22:14;26.20;37.10
68485;DHT22;55472;50.060;21.960;2022-08-07T14:24:50;26.20;37.20
68485;DHT22;55472;50.060;21.960;2022-08-07T14:27:37;26.20;37.60
68485;DHT22;55472;50.060;21.960;2022-08-07T14:30:11;26.20;37.80
68485;DHT22;55472;50.060;21.960;2022-08-07T14:32:42;26.20;38.10
68485;DHT22;55472;50.060;21.960;2022-08-07T14:35:25;26.20;37.30
68485;DHT22;55472;50.060;21.960;2022-08-07T14:38:01;26.20;37.70
68485;DHT22;55472;50.060;21.960;2022-08-07T14:40:28;26.10;37.20
68485;DHT22;55472;50.060;21.960;2022-08-07T14:43:02;26.10;38.00
68485;DHT22;55472;50.060;21.960;2022-08-07T14:45:45;26.10;37.30
68485;DHT22;55472;50.060;21.960;2022-08-07T14:48:21;26.00;37.30
68485;DHT22;55472;50.060;21.960;2022-08-07T14:51:00;25.80;37.30
68485;DHT22;55472;50.060;21.960;2022-08-07T14:53:32;25.70;37.30
68485;DHT22;55472;50.060;21.960;2022-08-07T14:56:04;25.70;37.70
68485;DHT22;55472;50.060;21.960;2022-08-07T14:58:34;25.70;38.40
68485;DHT22;55472;50.060;21.960;2022-08-07T15:01:02;25.70;38.20
68485;DHT22;55472;50.060;21.960;2022-08-07T15:03:31;25.70;38.60
68485;DHT22;55472;50.060;21.960;2022-08-07T15:05:58;25.70;37.90
68485;DHT22;55472;50.060;21.960;2022-08-07T15:08:31;25.50;37.80
68485;DHT22;55472;50.060;21.960;2022-08-07T15:11:05;25.50;38.40
68485;DHT22;55472;50.060;21.960;2022-08-07T15:13:56;25.50;38.90
68485;DHT22;55472;50.060;21.960;2022-08-07T15:16:46;25.40;38.70
68485;DHT22;55472;50.060;21.960;2022-08-07T15:19:18;25.40;38.50
68485;DHT22;55472;50.060;21.960;2022-08-07T15:21:48;25.50;38.80
68485;DHT22;55472;50.060;21.960;2022-08-07T15:27:06;25.30;38.20
68485;DHT22;55472;50.060;21.960;2022-08-07T15:29:36;25.20;39.20
68485;DHT22;55472;50.060;21.960;2022-08-07T15:32:05;25.20;39.20
68485;DHT22;55472;50.060;21.960;2022-08-07T15:34:37;25.10;38.70
68485;DHT22;55472;50.060;21.960;2022-08-07T15:37:06;25.10;38.10
68485;DHT22;55472;50.060;21.960;2022-08-07T15:39:46;25.00;38.30
68485;DHT22;55472;50.060;21.960;2022-08-07T15:45:02;24.90;38.60
68485;DHT22;55472;50.060;21.960;2022-08-07T15:47:39;24.80;38.00
68485;DHT22;55472;50.060;21.960;2022-08-07T15:50:11;24.70;38.90
68485;DHT22;55472;50.060;21.960;2022-08-07T15:52:43;24.70;39.10
68485;DHT22;55472;50.060;21.960;2022-08-07T15:55:18;24.50;39.10
68485;DHT22;55472;50.060;21.960;2022-08-07T15:57:51;24.50;38.90
68485;DHT22;55472;50.060;21.960;2022-08-07T16:00:20;24.40;38.30
68485;DHT22;55472;50.060;21.960;2022-08-07T16:02:52;24.30;38.40
68485;DHT22;55472;50.060;21.960;2022-08-07T16:05:20;24.20;38.70
68485;DHT22;55472;50.060;21.960;2022-08-07T16:07:55;24.10;38.60
68485;DHT22;55472;50.060;21.960;2022-08-07T16:10:27;24.10;39.00
68485;DHT22;55472;50.060;21.960;2022-08-07T16:13:37;24.10;38.80
68485;DHT22;55472;50.060;21.960;2022-08-07T16:20:14;24.10;38.90
68485;DHT22;55472;50.060;21.960;2022-08-07T16:31:45;24.00;39.30
68485;DHT22;55472;50.060;21.960;2022-08-07T16:42:54;23.70;39.90
68485;DHT22;55472;50.060;21.960;2022-08-07T16:55:15;23.50;40.00
68485;DHT22;55472;50.060;21.960;2022-08-07T16:58:03;23.40;40.40
68485;DHT22;55472;50.060;21.960;2022-08-07T17:00:41;23.40;40.30
68485;DHT22;55472;50.060;21.960;2022-08-07T17:03:19;23.30;40.60
68485;DHT22;55472;50.060;21.960;2022-08-07T17:06:08;23.30;41.40
68485;DHT22;55472;50.060;21.960;2022-08-07T17:08:50;23.30;41.00
68485;DHT22;55472;50.060;21.960;2022-08-07T17:11:38;23.30;40.90
68485;DHT22;55472;50.060;21.960;2022-08-07T17:14:14;23.20;40.80
68485;DHT22;55472;50.060;21.960;2022-08-07T17:16:52;23.10;41.20
68485;DHT22;55472;50.060;21.960;2022-08-07T17:19:36;23.00;41.30
68485;DHT22;55472;50.060;21.960;2022-08-07T17:22:12;23.00;41.20
68485;DHT22;55472;50.060;21.960;2022-08-07T17:24:59;22.90;41.40
68485;DHT22;55472;50.060;21.960;2022-08-07T17:27:44;22.80;41.90
68485;DHT22;55472;50.060;21.960;2022-08-07T17:30:16;22.80;42.20
68485;DHT22;55472;50.060;21.960;2022-08-07T17:35:37;22.80;43.10
68485;DHT22;55472;50.060;21.960;2022-08-07T17:38:14;22.70;43.90
68485;DHT22;55472;50.060;21.960;2022-08-07T17:40:58;22.70;44.20
68485;DHT22;55472;50.060;21.960;2022-08-07T17:43:55;22.60;44.60
68485;DHT22;55472;50.060;21.960;2022-08-07T17:46:39;22.60;45.20
68485;DHT22;55472;50.060;21.960;2022-08-07T17:49:15;22.50;45.30
68485;DHT22;55472;50.060;21.960;2022-08-07T17:52:35;22.40;45.40
68485;DHT22;55472;50.060;21.960;2022-08-07T17:55:07;22.30;46.50
68485;DHT22;55472;50.060;21.960;2022-08-07T17:57:49;22.20;46.90
68485;DHT22;55472;50.060;21.960;2022-08-07T18:00:29;22.10;47.20
68485;DHT22;55472;50.060;21.960;2022-08-07T18:02:57;22.00;47.40
68485;DHT22;55472;50.060;21.960;2022-08-07T18:05:34;22.00;47.70
68485;DHT22;55472;50.060;21.960;2022-08-07T18:08:16;21.90;48.00
68485;DHT22;55472;50.060;21.960;2022-08-07T18:13:45;21.60;48.50
68485;DHT22;55472;50.060;21.960;2022-08-07T18:16:18;21.50;48.90
68485;DHT22;55472;50.060;21.960;2022-08-07T18:19:09;21.40;49.00
68485;DHT22;55472;50.060;21.960;2022-08-07T18:21:41;21.30;49.00
68485;DHT22;55472;50.060;21.960;2022-08-07T18:35:55;20.70;50.40
68485;DHT22;55472;50.060;21.960;2022-08-07T18:41:49;20.60;50.80
68485;DHT22;55472;50.060;21.960;2022-08-07T18:47:39;20.40;51.00
68485;DHT22;55472;50.060;21.960;2022-08-07T18:50:27;20.40;51.20
68485;DHT22;55472;50.060;21.960;2022-08-07T19:01:47;20.10;51.40
68485;DHT22;55472;50.060;21.960;2022-08-07T19:04:33;20.00;51.50
68485;DHT22;55472;50.060;21.960;2022-08-07T19:07:25;20.00;52.10
68485;DHT22;55472;50.060;21.960;2022-08-07T19:23:59;19.60;51.80
68485;DHT22;55472;50.060;21.960;2022-08-07T19:26:35;19.50;51.90
68485;DHT22;55472;50.060;21.960;2022-08-07T19:29:04;19.50;52.60
68485;DHT22;55472;50.060;21.960;2022-08-07T19:31:49;19.50;53.30